createdAt,value
2023-05-25T00:04:11.742Z,11.60
2023-05-25T00:09:14.596Z,11.50
2023-05-25T00:14:16.514Z,11.40
2023-05-25T00:19:19.999Z,11.30
2023-05-25T00:24:22.107Z,11.30
2023-05-25T00:29:24.041Z,11.40
2023-05-25T00:34:28.169Z,11.50
2023-05-25T00:39:30.213Z,11.50
2023-05-25T00:44:34.776Z,11.40
2023-05-25T00:49:38.571Z,11.30
2023-05-25T00:54:40.808Z,11.10
2023-05-25T00:59:46.480Z,11.10
2023-05-25T01:04:54.411Z,11.00
2023-05-25T01:09:59.885Z,11.00
2023-05-25T01:15:03.184Z,11.10
2023-05-25T01:20:11.207Z,10.90
2023-05-25T01:25:22.935Z,11.00
2023-05-25T01:30:29.194Z,11.00
2023-05-25T01:35:33.946Z,11.00
2023-05-25T01:40:37.439Z,11.10
2023-05-25T01:45:39.705Z,11.10
2023-05-25T01:50:51.924Z,11.10
2023-05-25T01:55:59.990Z,11.10
2023-05-25T02:01:02.939Z,11.00
2023-05-25T02:06:06.147Z,11.00
2023-05-25T02:11:11.026Z,11.00
2023-05-25T02:16:13.017Z,11.00
2023-05-25T02:21:17.950Z,11.00
2023-05-25T02:26:21.963Z,11.00
2023-05-25T02:31:24.070Z,10.90
2023-05-25T02:36:26.282Z,10.90
2023-05-25T02:41:29.875Z,10.90
2023-05-25T02:46:33.800Z,10.90
2023-05-25T02:51:36.149Z,10.90
2023-05-25T02:56:39.681Z,11.00
2023-05-25T03:01:42.219Z,11.00
2023-05-25T03:06:45.468Z,10.90
2023-05-25T03:11:48.951Z,10.90
2023-05-25T03:16:53.627Z,11.00
2023-05-25T03:21:55.880Z,11.00
2023-05-25T03:26:59.079Z,11.00
2023-05-25T03:32:01.174Z,11.00
2023-05-25T03:37:03.763Z,10.90
2023-05-25T03:42:07.914Z,10.90
2023-05-25T03:47:10.120Z,11.00
2023-05-25T03:52:12.272Z,11.00
2023-05-25T03:57:15.982Z,11.00
2023-05-25T04:02:18.203Z,10.90
2023-05-25T04:07:20.230Z,10.90
2023-05-25T04:12:24.126Z,11.00
2023-05-25T04:17:26.500Z,11.10
2023-05-25T04:22:28.284Z,11.20
2023-05-25T04:27:31.964Z,11.20
2023-05-25T04:32:37.479Z,11.20
2023-05-25T04:37:40.902Z,11.30
2023-05-25T04:42:45.151Z,11.30
2023-05-25T04:47:47.680Z,11.40
2023-05-25T04:52:50.107Z,11.30
2023-05-25T04:57:55.264Z,11.40
2023-05-25T05:02:57.990Z,11.50
2023-05-25T05:08:00.232Z,11.40
2023-05-25T05:13:03.990Z,11.50
2023-05-25T05:18:08.811Z,11.50
2023-05-25T05:23:10.637Z,11.50
2023-05-25T05:28:14.367Z,11.50
2023-05-25T05:33:16.379Z,11.70
2023-05-25T05:38:18.813Z,11.90
2023-05-25T05:43:22.967Z,12.10
2023-05-25T05:48:24.650Z,12.00
2023-05-25T05:53:26.937Z,12.20
2023-05-25T05:58:32.557Z,12.20
2023-05-25T06:03:34.561Z,12.10
2023-05-25T06:08:36.817Z,12.40
2023-05-25T06:13:40.495Z,12.40
2023-05-25T06:18:42.617Z,12.40
2023-05-25T06:23:47.854Z,12.60
2023-05-25T06:28:52.155Z,13.50
2023-05-25T06:33:54.380Z,14.50
2023-05-25T06:38:56.875Z,14.80
2023-05-25T06:44:00.528Z,14.80
2023-05-25T06:49:03.338Z,14.50
2023-05-25T06:54:08.917Z,14.00
2023-05-25T06:59:12.558Z,13.90
2023-05-25T07:04:14.760Z,13.70
2023-05-25T07:09:17.509Z,14.10
2023-05-25T07:14:21.011Z,15.00
2023-05-25T07:19:23.050Z,16.00
2023-05-25T07:24:25.036Z,16.50
2023-05-25T07:29:28.727Z,16.00
2023-05-25T07:34:30.716Z,15.40
2023-05-25T07:39:33.071Z,14.90
2023-05-25T07:44:36.473Z,14.50
2023-05-25T07:49:38.684Z,14.30
2023-05-25T07:54:40.772Z,14.80
2023-05-25T07:59:45.009Z,16.30
2023-05-25T08:04:47.585Z,17.20
2023-05-25T08:09:49.914Z,18.20
2023-05-25T08:14:54.345Z,19.30
2023-05-25T08:19:56.528Z,19.50
2023-05-25T08:24:58.638Z,19.70
2023-05-25T08:30:01.892Z,19.90
2023-05-25T08:35:04.824Z,20.00
2023-05-25T08:40:10.305Z,19.90
2023-05-25T08:45:26.438Z,20.20
2023-05-25T08:50:37.364Z,20.80
2023-05-25T08:55:42.935Z,21.20
2023-05-25T09:00:56.301Z,21.50
2023-05-25T09:05:58.995Z,21.20
2023-05-25T09:11:02.502Z,22.00
2023-05-25T09:16:06.415Z,22.50
2023-05-25T09:21:08.413Z,22.60
2023-05-25T09:26:10.705Z,21.80
2023-05-25T09:31:14.332Z,21.90
2023-05-25T09:36:18.214Z,21.90
2023-05-25T09:41:21.112Z,22.90
2023-05-25T09:46:24.739Z,23.00
2023-05-25T09:51:28.306Z,22.90
2023-05-25T09:56:33.587Z,22.30
2023-05-25T10:01:37.670Z,22.60
2023-05-25T10:06:41.692Z,23.30
2023-05-25T10:11:44.994Z,23.90
2023-05-25T10:16:52.137Z,23.50
2023-05-25T10:22:04.731Z,23.50
2023-05-25T10:27:18.841Z,24.20
2023-05-25T10:32:31.234Z,24.70
2023-05-25T10:37:35.018Z,25.50
2023-05-25T10:42:38.271Z,25.60
2023-05-25T10:47:43.469Z,25.80
2023-05-25T10:52:46.074Z,25.50
2023-05-25T10:57:48.412Z,25.00
2023-05-25T11:02:53.958Z,25.40
2023-05-25T11:07:57.153Z,26.50
2023-05-25T11:13:23.219Z,26.30
2023-05-25T11:18:39.221Z,26.30
2023-05-25T11:23:53.323Z,26.50
2023-05-25T11:28:56.504Z,25.60
2023-05-25T11:34:04.935Z,26.80
2023-05-25T11:39:17.561Z,27.10
2023-05-25T11:44:29.470Z,27.20
2023-05-25T11:49:33.198Z,27.20
2023-05-25T11:54:35.963Z,27.80
2023-05-25T11:59:39.693Z,27.90
2023-05-25T12:04:43.685Z,27.90
2023-05-25T12:09:46.149Z,27.50
2023-05-25T12:14:49.677Z,28.40
2023-05-25T12:19:53.651Z,29.00
2023-05-25T12:24:55.857Z,29.90
2023-05-25T12:30:00.677Z,29.00
2023-05-25T12:35:08.654Z,29.40
2023-05-25T12:40:20.447Z,29.10
2023-05-25T12:45:23.137Z,28.80
2023-05-25T12:50:27.021Z,28.50
2023-05-25T12:55:30.518Z,30.30
2023-05-25T13:00:34.022Z,31.50
2023-05-25T13:05:39.206Z,31.10
2023-05-25T13:10:41.480Z,30.80
2023-05-25T13:15:44.636Z,29.90
2023-05-25T13:20:50.694Z,30.60
2023-05-25T13:25:54.794Z,31.10
2023-05-25T13:30:57.228Z,31.80
2023-05-25T13:36:08.508Z,32.30
2023-05-25T13:41:11.502Z,31.20
2023-05-25T13:46:25.887Z,30.70
2023-05-25T13:51:38.367Z,30.10
2023-05-25T13:56:42.573Z,31.10
2023-05-25T14:01:44.802Z,31.20
2023-05-25T14:06:48.556Z,30.10
2023-05-25T14:11:53.553Z,30.50
2023-05-25T14:16:56.326Z,29.10
2023-05-25T14:22:12.552Z,28.30
2023-05-25T14:27:21.215Z,29.20
2023-05-25T14:32:23.885Z,28.10
2023-05-25T14:37:27.312Z,27.80
2023-05-25T14:42:30.457Z,29.40
2023-05-25T14:47:32.908Z,30.10
2023-05-25T14:52:37.492Z,28.60
2023-05-25T14:57:39.381Z,26.70
2023-05-25T15:02:41.547Z,27.40
2023-05-25T15:07:45.421Z,26.30
2023-05-25T15:12:47.462Z,25.50
2023-05-25T15:17:49.685Z,24.80
2023-05-25T15:22:54.105Z,23.60
2023-05-25T15:27:56.613Z,23.60
2023-05-25T15:32:59.032Z,23.30
2023-05-25T15:38:02.686Z,22.50
2023-05-25T15:43:04.902Z,22.60
2023-05-25T15:48:10.287Z,22.40
2023-05-25T15:53:13.926Z,22.10
2023-05-25T15:58:17.866Z,22.00
2023-05-25T16:03:20.004Z,21.90
2023-05-25T16:08:24.100Z,21.90
2023-05-25T16:13:26.681Z,21.90
2023-05-25T16:18:28.972Z,21.90
2023-05-25T16:23:32.621Z,21.80
2023-05-25T16:28:34.863Z,21.70
2023-05-25T16:33:36.893Z,21.70
2023-05-25T16:38:40.413Z,21.60
2023-05-25T16:43:42.422Z,21.50
2023-05-25T16:48:44.670Z,21.30
2023-05-25T16:53:48.064Z,21.30
2023-05-25T16:58:50.059Z,21.30
2023-05-25T17:03:52.252Z,21.20
2023-05-25T17:08:56.507Z,21.00
2023-05-25T17:13:58.845Z,20.80
2023-05-25T17:19:00.784Z,20.80
2023-05-25T17:24:04.264Z,20.90
2023-05-25T17:29:06.828Z,20.90
2023-05-25T17:34:10.314Z,20.90
2023-05-25T17:39:13.948Z,20.90
2023-05-25T17:44:16.169Z,20.90
2023-05-25T17:49:18.445Z,20.80
2023-05-25T17:54:26.012Z,20.70
2023-05-25T17:59:28.652Z,20.90
2023-05-25T18:04:31.054Z,20.90
2023-05-25T18:09:36.313Z,20.90
2023-05-25T18:14:39.339Z,20.70
2023-05-25T18:19:42.172Z,20.60
2023-05-25T18:24:46.246Z,20.30
2023-05-25T18:29:48.628Z,20.20
2023-05-25T18:34:51.212Z,20.10
2023-05-25T18:39:54.893Z,19.90
2023-05-25T18:44:56.797Z,19.80
2023-05-25T18:49:58.723Z,19.60
2023-05-25T18:55:02.548Z,19.40
2023-05-25T19:00:07.603Z,19.30
2023-05-25T19:05:11.784Z,19.10
2023-05-25T19:10:28.518Z,18.90
2023-05-25T19:15:59.548Z,18.70
2023-05-25T19:21:08.753Z,18.50
2023-05-25T19:26:12.989Z,18.50
2023-05-25T19:31:15.695Z,18.40
2023-05-25T19:36:18.727Z,18.30
2023-05-25T19:41:23.383Z,18.10
2023-05-25T19:46:26.105Z,17.90
2023-05-25T19:51:28.533Z,17.70
2023-05-25T19:56:32.477Z,17.60
2023-05-25T20:01:35.903Z,17.50
2023-05-25T20:06:39.211Z,17.20
2023-05-25T20:11:43.404Z,17.10
2023-05-25T20:16:45.484Z,17.00
2023-05-25T20:21:47.798Z,16.80
2023-05-25T20:26:56.859Z,16.60
2023-05-25T20:31:59.498Z,16.50
2023-05-25T20:37:01.562Z,16.50
2023-05-25T20:42:06.958Z,16.50
2023-05-25T20:47:10.666Z,16.50
2023-05-25T20:52:13.066Z,16.30
2023-05-25T20:57:17.684Z,16.20
2023-05-25T21:02:19.989Z,16.10
2023-05-25T21:07:22.358Z,16.00
2023-05-25T21:12:26.002Z,15.90
2023-05-25T21:17:28.333Z,15.80
2023-05-25T21:22:30.768Z,15.70
2023-05-25T21:27:34.327Z,15.50
2023-05-25T21:32:36.262Z,15.30
2023-05-25T21:37:38.564Z,15.10
2023-05-25T21:42:42.503Z,15.10
2023-05-25T21:47:45.174Z,15.10
2023-05-25T21:52:47.432Z,14.90
2023-05-25T21:57:50.793Z,14.70
2023-05-25T22:02:52.770Z,14.70
2023-05-25T22:07:55.813Z,14.70
2023-05-25T22:12:59.726Z,14.50
2023-05-25T22:18:02.780Z,14.40
2023-05-25T22:23:05.264Z,14.30
2023-05-25T22:28:08.747Z,14.30
2023-05-25T22:33:10.872Z,14.40
2023-05-25T22:38:13.135Z,14.60
2023-05-25T22:43:17.075Z,14.50
2023-05-25T22:48:19.292Z,14.30
2023-05-25T22:53:21.101Z,14.20
2023-05-25T22:58:24.521Z,14.10
2023-05-25T23:03:29.464Z,14.10
2023-05-25T23:08:34.079Z,13.90
2023-05-25T23:13:37.912Z,13.90
2023-05-25T23:18:40.177Z,13.90
2023-05-25T23:23:43.599Z,13.70
2023-05-25T23:28:49.164Z,13.60
2023-05-25T23:33:51.500Z,13.60
2023-05-25T23:38:53.592Z,13.70
2023-05-25T23:43:57.885Z,13.70
2023-05-25T23:49:00.484Z,13.50
2023-05-25T23:54:07.046Z,13.30
2023-05-25T23:59:14.713Z,13.30
